sensor_id;sensor_type;location;lat;lon;timestamp;temperature;humidity
1988;DHT22;12775;46.994;15.498;2023-06-14T02:31:29;19.30;96.00
1988;DHT22;12775;46.994;15.498;2023-06-14T02:33:57;19.00;95.90
1988;DHT22;12775;46.994;15.498;2023-06-14T02:36:24;18.90;95.70
1988;DHT22;12775;46.994;15.498;2023-06-14T02:38:51;18.80;95.50
1988;DHT22;12775;46.994;15.498;2023-06-14T02:41:19;18.70;95.50
1988;DHT22;12775;46.994;15.498;2023-06-14T02:43:46;18.70;95.60
1988;DHT22;12775;46.994;15.498;2023-06-14T02:46:14;18.60;96.30
1988;DHT22;12775;46.994;15.498;2023-06-14T02:48:41;18.60;96.20
1988;DHT22;12775;46.994;15.498;2023-06-14T02:51:08;18.50;95.90
1988;DHT22;12775;46.994;15.498;2023-06-14T02:53:36;18.50;96.40
1988;DHT22;12775;46.994;15.498;2023-06-14T02:56:03;18.50;96.70
1988;DHT22;12775;46.994;15.498;2023-06-14T02:58:31;18.50;96.80
1988;DHT22;12775;46.994;15.498;2023-06-14T03:00:58;18.40;96.80
1988;DHT22;12775;46.994;15.498;2023-06-14T03:03:25;18.40;96.80
1988;DHT22;12775;46.994;15.498;2023-06-14T03:05:53;18.40;97.50
1988;DHT22;12775;46.994;15.498;2023-06-14T03:08:20;18.30;97.50
1988;DHT22;12775;46.994;15.498;2023-06-14T03:10:48;18.30;97.70
1988;DHT22;12775;46.994;15.498;2023-06-14T03:13:15;18.30;98.00
1988;DHT22;12775;46.994;15.498;2023-06-14T03:15:42;18.30;98.20
1988;DHT22;12775;46.994;15.498;2023-06-14T03:18:09;18.20;97.80
1988;DHT22;12775;46.994;15.498;2023-06-14T03:20:37;18.20;98.20
1988;DHT22;12775;46.994;15.498;2023-06-14T03:23:04;18.20;98.40
1988;DHT22;12775;46.994;15.498;2023-06-14T03:25:33;18.10;98.50
1988;DHT22;12775;46.994;15.498;2023-06-14T03:28:00;18.00;98.20
1988;DHT22;12775;46.994;15.498;2023-06-14T03:30:27;18.00;98.20
1988;DHT22;12775;46.994;15.498;2023-06-14T03:32:55;18.00;98.80
1988;DHT22;12775;46.994;15.498;2023-06-14T03:35:22;18.00;98.60
1988;DHT22;12775;46.994;15.498;2023-06-14T03:37:49;18.00;98.90
1988;DHT22;12775;46.994;15.498;2023-06-14T03:40:17;18.00;98.60
1988;DHT22;12775;46.994;15.498;2023-06-14T03:42:44;18.00;98.40
1988;DHT22;12775;46.994;15.498;2023-06-14T03:45:11;18.00;99.20
1988;DHT22;12775;46.994;15.498;2023-06-14T03:47:40;17.90;99.70
1988;DHT22;12775;46.994;15.498;2023-06-14T03:50:07;17.90;99.60
1988;DHT22;12775;46.994;15.498;2023-06-14T03:52:35;17.90;99.90
1988;DHT22;12775;46.994;15.498;2023-06-14T03:55:02;17.90;99.60
1988;DHT22;12775;46.994;15.498;2023-06-14T03:57:30;17.90;99.60
1988;DHT22;12775;46.994;15.498;2023-06-14T03:59:57;17.90;99.90
1988;DHT22;12775;46.994;15.498;2023-06-14T04:02:25;17.90;99.90
1988;DHT22;12775;46.994;15.498;2023-06-14T04:04:52;18.00;99.90
1988;DHT22;12775;46.994;15.498;2023-06-14T04:07:19;17.90;99.90
1988;DHT22;12775;46.994;15.498;2023-06-14T04:09:47;17.90;99.90
1988;DHT22;12775;46.994;15.498;2023-06-14T04:12:14;18.00;99.90
1988;DHT22;12775;46.994;15.498;2023-06-14T04:14:41;18.00;99.90
1988;DHT22;12775;46.994;15.498;2023-06-14T04:17:09;17.90;99.90
1988;DHT22;12775;46.994;15.498;2023-06-14T04:19:36;18.00;99.90
1988;DHT22;12775;46.994;15.498;2023-06-14T04:22:04;17.90;99.90
1988;DHT22;12775;46.994;15.498;2023-06-14T04:24:31;18.00;99.90
1988;DHT22;12775;46.994;15.498;2023-06-14T04:26:59;18.00;99.90
1988;DHT22;12775;46.994;15.498;2023-06-14T04:29:26;18.00;99.40
1988;DHT22;12775;46.994;15.498;2023-06-14T04:31:54;18.10;99.90
1988;DHT22;12775;46.994;15.498;2023-06-14T04:34:21;18.00;99.90
1988;DHT22;12775;46.994;15.498;2023-06-14T04:36:49;18.10;99.50
1988;DHT22;12775;46.994;15.498;2023-06-14T04:39:17;18.10;99.90
1988;DHT22;12775;46.994;15.498;2023-06-14T04:41:45;18.20;99.90
1988;DHT22;12775;46.994;15.498;2023-06-14T04:44:12;18.20;99.90
1988;DHT22;12775;46.994;15.498;2023-06-14T04:46:39;18.20;99.90
1988;DHT22;12775;46.994;15.498;2023-06-14T04:49:13;18.20;99.90
1988;DHT22;12775;46.994;15.498;2023-06-14T04:51:40;18.20;99.90
1988;DHT22;12775;46.994;15.498;2023-06-14T04:54:07;18.20;99.90
1988;DHT22;12775;46.994;15.498;2023-06-14T04:56:34;18.20;99.90
1988;DHT22;12775;46.994;15.498;2023-06-14T04:59:02;18.20;99.90
1988;DHT22;12775;46.994;15.498;2023-06-14T05:01:29;18.30;99.90
1988;DHT22;12775;46.994;15.498;2023-06-14T05:03:56;18.30;99.90
1988;DHT22;12775;46.994;15.498;2023-06-14T05:06:23;18.30;99.90
1988;DHT22;12775;46.994;15.498;2023-06-14T05:08:50;18.40;99.90
1988;DHT22;12775;46.994;15.498;2023-06-14T05:11:18;18.30;99.90
1988;DHT22;12775;46.994;15.498;2023-06-14T05:13:45;18.30;99.90
1988;DHT22;12775;46.994;15.498;2023-06-14T05:16:12;18.30;99.90
1988;DHT22;12775;46.994;15.498;2023-06-14T05:18:39;18.40;99.60
1988;DHT22;12775;46.994;15.498;2023-06-14T05:21:06;18.40;99.90
1988;DHT22;12775;46.994;15.498;2023-06-14T05:23:35;18.40;99.90
1988;DHT22;12775;46.994;15.498;2023-06-14T05:26:02;18.50;99.90
1988;DHT22;12775;46.994;15.498;2023-06-14T05:28:30;18.50;99.90
1988;DHT22;12775;46.994;15.498;2023-06-14T05:30:58;18.60;99.90
1988;DHT22;12775;46.994;15.498;2023-06-14T05:33:26;18.60;99.50
1988;DHT22;12775;46.994;15.498;2023-06-14T05:35:54;18.60;99.30
1988;DHT22;12775;46.994;15.498;2023-06-14T05:38:21;18.60;99.10
1988;DHT22;12775;46.994;15.498;2023-06-14T05:40:48;18.60;99.10
1988;DHT22;12775;46.994;15.498;2023-06-14T05:43:16;18.70;98.40
1988;DHT22;12775;46.994;15.498;2023-06-14T05:45:43;18.70;99.40
1988;DHT22;12775;46.994;15.498;2023-06-14T05:48:10;18.70;99.30
1988;DHT22;12775;46.994;15.498;2023-06-14T05:50:37;18.70;99.30
1988;DHT22;12775;46.994;15.498;2023-06-14T05:53:04;18.70;99.90
1988;DHT22;12775;46.994;15.498;2023-06-14T05:55:32;18.60;99.90
1988;DHT22;12775;46.994;15.498;2023-06-14T05:57:58;18.60;99.90
1988;DHT22;12775;46.994;15.498;2023-06-14T06:00:25;18.60;99.90
1988;DHT22;12775;46.994;15.498;2023-06-14T06:02:52;18.50;99.90
1988;DHT22;12775;46.994;15.498;2023-06-14T06:05:20;18.60;99.90
1988;DHT22;12775;46.994;15.498;2023-06-14T06:07:47;18.50;99.90
1988;DHT22;12775;46.994;15.498;2023-06-14T06:10:14;18.60;99.90
1988;DHT22;12775;46.994;15.498;2023-06-14T06:12:42;18.50;99.90
1988;DHT22;12775;46.994;15.498;2023-06-14T06:15:09;18.50;99.90
1988;DHT22;12775;46.994;15.498;2023-06-14T06:17:39;18.60;99.90
1988;DHT22;12775;46.994;15.498;2023-06-14T06:20:06;18.60;99.90
1988;DHT22;12775;46.994;15.498;2023-06-14T06:22:34;18.60;99.90
1988;DHT22;12775;46.994;15.498;2023-06-14T06:25:01;18.60;99.90
1988;DHT22;12775;46.994;15.498;2023-06-14T06:27:29;18.60;99.90
1988;DHT22;12775;46.994;15.498;2023-06-14T06:29:56;18.60;99.90
1988;DHT22;12775;46.994;15.498;2023-06-14T06:32:23;18.60;99.90
1988;DHT22;12775;46.994;15.498;2023-06-14T06:34:51;18.60;99.90
1988;DHT22;12775;46.994;15.498;2023-06-14T06:37:19;18.60;99.90
1988;DHT22;12775;46.994;15.498;2023-06-14T06:39:48;18.50;99.90
1988;DHT22;12775;46.994;15.498;2023-06-14T06:42:15;18.50;99.90
1988;DHT22;12775;46.994;15.498;2023-06-14T06:44:42;18.50;99.90
1988;DHT22;12775;46.994;15.498;2023-06-14T06:47:10;18.40;99.90
1988;DHT22;12775;46.994;15.498;2023-06-14T06:49:36;18.30;99.90
1988;DHT22;12775;46.994;15.498;2023-06-14T06:52:06;18.00;99.90
1988;DHT22;12775;46.994;15.498;2023-06-14T06:54:33;18.00;99.90
1988;DHT22;12775;46.994;15.498;2023-06-14T06:57:03;17.80;99.90
1988;DHT22;12775;46.994;15.498;2023-06-14T06:59:30;17.80;99.90
1988;DHT22;12775;46.994;15.498;2023-06-14T07:01:57;17.80;99.90
1988;DHT22;12775;46.994;15.498;2023-06-14T07:04:24;17.70;99.90
1988;DHT22;12775;46.994;15.498;2023-06-14T07:06:52;17.70;99.90
1988;DHT22;12775;46.994;15.498;2023-06-14T07:09:18;17.50;98.40
1988;DHT22;12775;46.994;15.498;2023-06-14T07:11:46;17.30;98.40
1988;DHT22;12775;46.994;15.498;2023-06-14T07:14:14;17.00;98.60
1988;DHT22;12775;46.994;15.498;2023-06-14T07:16:42;16.90;99.50
1988;DHT22;12775;46.994;15.498;2023-06-14T07:19:09;16.80;98.50
1988;DHT22;12775;46.994;15.498;2023-06-14T07:21:37;16.70;98.50
1988;DHT22;12775;46.994;15.498;2023-06-14T07:24:05;16.70;99.10
1988;DHT22;12775;46.994;15.498;2023-06-14T07:26:32;16.50;98.80
1988;DHT22;12775;46.994;15.498;2023-06-14T07:29:00;16.40;98.70
1988;DHT22;12775;46.994;15.498;2023-06-14T07:31:27;16.40;99.30
1988;DHT22;12775;46.994;15.498;2023-06-14T07:33:54;16.30;99.40
1988;DHT22;12775;46.994;15.498;2023-06-14T07:36:22;16.20;99.20
1988;DHT22;12775;46.994;15.498;2023-06-14T07:38:49;16.20;99.90
1988;DHT22;12775;46.994;15.498;2023-06-14T07:41:17;16.10;99.90
1988;DHT22;12775;46.994;15.498;2023-06-14T07:43:44;16.10;99.90
1988;DHT22;12775;46.994;15.498;2023-06-14T07:46:12;16.10;99.90
1988;DHT22;12775;46.994;15.498;2023-06-14T07:48:39;16.00;99.90
1988;DHT22;12775;46.994;15.498;2023-06-14T07:51:06;16.10;99.90
1988;DHT22;12775;46.994;15.498;2023-06-14T07:53:33;16.10;99.90
1988;DHT22;12775;46.994;15.498;2023-06-14T07:56:03;16.10;99.90
1988;DHT22;12775;46.994;15.498;2023-06-14T07:58:32;16.00;99.90
1988;DHT22;12775;46.994;15.498;2023-06-14T08:00:58;16.00;99.90
1988;DHT22;12775;46.994;15.498;2023-06-14T08:03:25;15.90;99.90
1988;DHT22;12775;46.994;15.498;2023-06-14T08:05:55;15.80;99.90
1988;DHT22;12775;46.994;15.498;2023-06-14T08:08:25;15.70;99.90
1988;DHT22;12775;46.994;15.498;2023-06-14T08:10:55;15.80;99.90
1988;DHT22;12775;46.994;15.498;2023-06-14T08:13:26;15.70;99.90
1988;DHT22;12775;46.994;15.498;2023-06-14T08:15:53;15.80;99.90
1988;DHT22;12775;46.994;15.498;2023-06-14T08:18:21;15.90;99.90
1988;DHT22;12775;46.994;15.498;2023-06-14T08:20:48;15.90;99.90
1988;DHT22;12775;46.994;15.498;2023-06-14T08:23:17;16.10;99.90
1988;DHT22;12775;46.994;15.498;2023-06-14T08:25:45;16.30;99.90
1988;DHT22;12775;46.994;15.498;2023-06-14T08:28:13;16.50;99.90
1988;DHT22;12775;46.994;15.498;2023-06-14T08:30:42;16.40;99.90
1988;DHT22;12775;46.994;15.498;2023-06-14T08:33:10;16.70;99.90
1988;DHT22;12775;46.994;15.498;2023-06-14T08:35:39;16.70;99.90
1988;DHT22;12775;46.994;15.498;2023-06-14T08:38:06;16.80;99.90
1988;DHT22;12775;46.994;15.498;2023-06-14T08:40:34;16.80;99.90
1988;DHT22;12775;46.994;15.498;2023-06-14T08:43:00;16.90;99.90
1988;DHT22;12775;46.994;15.498;2023-06-14T08:45:29;17.10;99.90
1988;DHT22;12775;46.994;15.498;2023-06-14T08:47:58;17.20;99.90
1988;DHT22;12775;46.994;15.498;2023-06-14T08:50:25;17.10;99.90
1988;DHT22;12775;46.994;15.498;2023-06-14T08:52:54;17.30;99.90
1988;DHT22;12775;46.994;15.498;2023-06-14T08:55:22;17.40;99.90
1988;DHT22;12775;46.994;15.498;2023-06-14T08:57:51;17.40;99.90
1988;DHT22;12775;46.994;15.498;2023-06-14T09:00:24;17.30;99.90
1988;DHT22;12775;46.994;15.498;2023-06-14T09:02:52;17.50;99.90
1988;DHT22;12775;46.994;15.498;2023-06-14T09:05:19;17.60;99.90
1988;DHT22;12775;46.994;15.498;2023-06-14T09:07:47;17.80;99.90
1988;DHT22;12775;46.994;15.498;2023-06-14T09:10:15;17.90;99.90
1988;DHT22;12775;46.994;15.498;2023-06-14T09:12:42;18.10;99.90
1988;DHT22;12775;46.994;15.498;2023-06-14T09:15:10;18.10;99.90
1988;DHT22;12775;46.994;15.498;2023-06-14T09:17:40;18.10;99.90
1988;DHT22;12775;46.994;15.498;2023-06-14T09:20:09;18.30;99.90
1988;DHT22;12775;46.994;15.498;2023-06-14T09:22:36;18.30;99.90
1988;DHT22;12775;46.994;15.498;2023-06-14T09:25:04;18.40;99.90
1988;DHT22;12775;46.994;15.498;2023-06-14T09:27:31;18.30;99.90
1988;DHT22;12775;46.994;15.498;2023-06-14T09:29:57;18.50;99.90
1988;DHT22;12775;46.994;15.498;2023-06-14T09:32:24;18.50;99.90
1988;DHT22;12775;46.994;15.498;2023-06-14T09:34:54;18.60;99.90
1988;DHT22;12775;46.994;15.498;2023-06-14T09:37:27;18.60;99.90
1988;DHT22;12775;46.994;15.498;2023-06-14T09:39:56;18.50;99.90
1988;DHT22;12775;46.994;15.498;2023-06-14T09:42:25;18.50;99.90
1988;DHT22;12775;46.994;15.498;2023-06-14T09:44:52;18.50;99.80
1988;DHT22;12775;46.994;15.498;2023-06-14T09:47:20;18.30;99.60
1988;DHT22;12775;46.994;15.498;2023-06-14T09:49:50;18.30;99.90
1988;DHT22;12775;46.994;15.498;2023-06-14T09:52:18;18.30;99.90
1988;DHT22;12775;46.994;15.498;2023-06-14T09:54:46;18.30;99.90
1988;DHT22;12775;46.994;15.498;2023-06-14T09:57:15;18.20;99.90
1988;DHT22;12775;46.994;15.498;2023-06-14T09:59:46;18.20;99.90
1988;DHT22;12775;46.994;15.498;2023-06-14T10:05:09;18.40;99.90
1988;DHT22;12775;46.994;15.498;2023-06-14T10:07:58;18.50;99.90
1988;DHT22;12775;46.994;15.498;2023-06-14T10:10:22;18.40;99.90
1988;DHT22;12775;46.994;15.498;2023-06-14T10:12:52;18.80;99.90
1988;DHT22;12775;46.994;15.498;2023-06-14T10:15:27;18.70;99.90
1988;DHT22;12775;46.994;15.498;2023-06-14T10:17:54;18.90;99.90
1988;DHT22;12775;46.994;15.498;2023-06-14T10:20:24;19.10;99.90
1988;DHT22;12775;46.994;15.498;2023-06-14T10:22:52;19.40;99.90
1988;DHT22;12775;46.994;15.498;2023-06-14T10:25:26;19.60;99.90
1988;DHT22;12775;46.994;15.498;2023-06-14T10:28:14;20.10;99.90
1988;DHT22;12775;46.994;15.498;2023-06-14T10:30:31;20.10;99.90
1988;DHT22;12775;46.994;15.498;2023-06-14T10:33:06;20.40;99.90
1988;DHT22;12775;46.994;15.498;2023-06-14T10:35:35;20.80;99.90
1988;DHT22;12775;46.994;15.498;2023-06-14T10:38:09;21.60;99.90
1988;DHT22;12775;46.994;15.498;2023-06-14T10:40:36;22.00;99.90
1988;DHT22;12775;46.994;15.498;2023-06-14T10:43:35;22.30;98.20
1988;DHT22;12775;46.994;15.498;2023-06-14T10:46:25;22.30;95.00
1988;DHT22;12775;46.994;15.498;2023-06-14T10:48:40;22.30;95.00
1988;DHT22;12775;46.994;15.498;2023-06-14T10:51:03;22.50;99.70
1988;DHT22;12775;46.994;15.498;2023-06-14T10:53:39;22.60;98.70
1988;DHT22;12775;46.994;15.498;2023-06-14T10:56:05;22.80;98.20
1988;DHT22;12775;46.994;15.498;2023-06-14T10:58:26;23.00;98.40
1988;DHT22;12775;46.994;15.498;2023-06-14T11:00:53;23.30;99.10
1988;DHT22;12775;46.994;15.498;2023-06-14T11:03:54;23.30;95.90
1988;DHT22;12775;46.994;15.498;2023-06-14T11:06:22;23.20;91.10
1988;DHT22;12775;46.994;15.498;2023-06-14T11:11:31;23.50;92.40
1988;DHT22;12775;46.994;15.498;2023-06-14T11:13:58;23.70;90.60
1988;DHT22;12775;46.994;15.498;2023-06-14T11:16:25;23.90;91.90
1988;DHT22;12775;46.994;15.498;2023-06-14T11:18:54;24.10;91.70
1988;DHT22;12775;46.994;15.498;2023-06-14T11:21:23;24.20;90.30
1988;DHT22;12775;46.994;15.498;2023-06-14T11:23:53;24.20;93.20
1988;DHT22;12775;46.994;15.498;2023-06-14T11:26:28;24.40;92.60
1988;DHT22;12775;46.994;15.498;2023-06-14T11:28:59;24.30;92.60
1988;DHT22;12775;46.994;15.498;2023-06-14T11:31:30;24.60;92.10
1988;DHT22;12775;46.994;15.498;2023-06-14T11:33:58;24.80;89.50
1988;DHT22;12775;46.994;15.498;2023-06-14T11:36:27;24.80;90.00
1988;DHT22;12775;46.994;15.498;2023-06-14T11:38:59;25.10;85.00
1988;DHT22;12775;46.994;15.498;2023-06-14T11:44:09;25.30;85.40
1988;DHT22;12775;46.994;15.498;2023-06-14T11:46:42;25.30;80.30
1988;DHT22;12775;46.994;15.498;2023-06-14T11:49:11;25.50;86.20
1988;DHT22;12775;46.994;15.498;2023-06-14T11:51:38;25.40;86.20
1988;DHT22;12775;46.994;15.498;2023-06-14T11:54:06;25.80;90.80
1988;DHT22;12775;46.994;15.498;2023-06-14T11:56:41;26.10;80.70
1988;DHT22;12775;46.994;15.498;2023-06-14T11:59:13;25.90;78.90
1988;DHT22;12775;46.994;15.498;2023-06-14T12:01:43;25.90;84.00
1988;DHT22;12775;46.994;15.498;2023-06-14T12:06:52;25.80;82.10
1988;DHT22;12775;46.994;15.498;2023-06-14T12:09:21;26.00;88.60
1988;DHT22;12775;46.994;15.498;2023-06-14T12:11:48;25.80;84.20
1988;DHT22;12775;46.994;15.498;2023-06-14T12:14:17;25.80;84.30
1988;DHT22;12775;46.994;15.498;2023-06-14T12:16:44;25.70;84.30
1988;DHT22;12775;46.994;15.498;2023-06-14T12:19:14;25.70;84.30
1988;DHT22;12775;46.994;15.498;2023-06-14T12:21:40;25.90;86.70
1988;DHT22;12775;46.994;15.498;2023-06-14T12:24:08;25.80;88.10
1988;DHT22;12775;46.994;15.498;2023-06-14T12:26:37;25.80;83.40
1988;DHT22;12775;46.994;15.498;2023-06-14T12:29:04;25.70;83.00
1988;DHT22;12775;46.994;15.498;2023-06-14T12:31:31;25.70;83.10
1988;DHT22;12775;46.994;15.498;2023-06-14T12:34:01;25.30;76.80
1988;DHT22;12775;46.994;15.498;2023-06-14T12:36:32;25.20;86.60
1988;DHT22;12775;46.994;15.498;2023-06-14T12:39:00;25.10;86.50
1988;DHT22;12775;46.994;15.498;2023-06-14T12:41:28;25.00;84.80
1988;DHT22;12775;46.994;15.498;2023-06-14T12:43:56;25.20;81.00
1988;DHT22;12775;46.994;15.498;2023-06-14T12:46:26;25.20;82.00
1988;DHT22;12775;46.994;15.498;2023-06-14T12:48:56;25.30;82.40
1988;DHT22;12775;46.994;15.498;2023-06-14T12:51:24;25.30;82.30
1988;DHT22;12775;46.994;15.498;2023-06-14T12:53:54;25.30;80.70
1988;DHT22;12775;46.994;15.498;2023-06-14T12:56:22;25.40;79.10
1988;DHT22;12775;46.994;15.498;2023-06-14T12:58:49;25.50;84.70
1988;DHT22;12775;46.994;15.498;2023-06-14T13:01:16;25.50;84.80
1988;DHT22;12775;46.994;15.498;2023-06-14T13:03:44;25.70;80.90
1988;DHT22;12775;46.994;15.498;2023-06-14T13:06:17;25.80;84.90
1988;DHT22;12775;46.994;15.498;2023-06-14T13:08:46;25.70;78.80
1988;DHT22;12775;46.994;15.498;2023-06-14T13:11:12;25.70;78.80
1988;DHT22;12775;46.994;15.498;2023-06-14T13:13:41;25.50;85.50
1988;DHT22;12775;46.994;15.498;2023-06-14T13:16:14;25.60;80.20
1988;DHT22;12775;46.994;15.498;2023-06-14T13:18:40;25.60;80.00
1988;DHT22;12775;46.994;15.498;2023-06-14T13:21:13;25.40;85.10
1988;DHT22;12775;46.994;15.498;2023-06-14T13:23:40;25.60;88.00
1988;DHT22;12775;46.994;15.498;2023-06-14T13:26:07;25.60;88.00
1988;DHT22;12775;46.994;15.498;2023-06-14T13:28:34;25.70;82.90
1988;DHT22;12775;46.994;15.498;2023-06-14T13:31:01;25.70;83.50
1988;DHT22;12775;46.994;15.498;2023-06-14T13:33:28;25.40;83.00
1988;DHT22;12775;46.994;15.498;2023-06-14T13:36:03;25.40;83.10
1988;DHT22;12775;46.994;15.498;2023-06-14T13:38:30;24.90;85.40
1988;DHT22;12775;46.994;15.498;2023-06-14T13:40:57;25.00;85.60
1988;DHT22;12775;46.994;15.498;2023-06-14T13:43:23;25.10;82.10
1988;DHT22;12775;46.994;15.498;2023-06-14T13:45:51;25.30;90.10
1988;DHT22;12775;46.994;15.498;2023-06-14T13:48:17;25.20;90.10
1988;DHT22;12775;46.994;15.498;2023-06-14T13:50:45;25.50;84.20
1988;DHT22;12775;46.994;15.498;2023-06-14T13:53:11;25.50;84.20
1988;DHT22;12775;46.994;15.498;2023-06-14T13:55:38;25.70;88.20
1988;DHT22;12775;46.994;15.498;2023-06-14T13:58:05;25.90;88.10
1988;DHT22;12775;46.994;15.498;2023-06-14T14:00:31;26.00;83.40
1988;DHT22;12775;46.994;15.498;2023-06-14T14:02:58;26.20;87.70
1988;DHT22;12775;46.994;15.498;2023-06-14T14:05:26;26.60;84.60
1988;DHT22;12775;46.994;15.498;2023-06-14T14:07:53;26.60;84.60
1988;DHT22;12775;46.994;15.498;2023-06-14T14:10:20;27.00;84.80
1988;DHT22;12775;46.994;15.498;2023-06-14T14:12:47;27.20;88.00
1988;DHT22;12775;46.994;15.498;2023-06-14T14:15:15;27.20;79.80
1988;DHT22;12775;46.994;15.498;2023-06-14T14:17:42;27.20;80.70
1988;DHT22;12775;46.994;15.498;2023-06-14T14:20:10;27.40;81.70
1988;DHT22;12775;46.994;15.498;2023-06-14T14:22:37;27.30;81.50
1988;DHT22;12775;46.994;15.498;2023-06-14T14:25:05;27.20;72.60
1988;DHT22;12775;46.994;15.498;2023-06-14T14:27:32;27.20;78.10
1988;DHT22;12775;46.994;15.498;2023-06-14T14:29:59;27.20;78.00
1988;DHT22;12775;46.994;15.498;2023-06-14T14:32:26;26.90;72.60
1988;DHT22;12775;46.994;15.498;2023-06-14T14:34:53;26.90;72.30
1988;DHT22;12775;46.994;15.498;2023-06-14T14:37:21;26.90;74.70
1988;DHT22;12775;46.994;15.498;2023-06-14T14:39:48;26.80;76.50
1988;DHT22;12775;46.994;15.498;2023-06-14T14:42:15;26.80;81.80
1988;DHT22;12775;46.994;15.498;2023-06-14T14:44:43;26.90;82.00
1988;DHT22;12775;46.994;15.498;2023-06-14T14:47:10;26.80;81.20
1988;DHT22;12775;46.994;15.498;2023-06-14T14:49:37;26.70;81.00
1988;DHT22;12775;46.994;15.498;2023-06-14T14:52:04;26.80;79.40
1988;DHT22;12775;46.994;15.498;2023-06-14T14:54:31;26.80;80.40
1988;DHT22;12775;46.994;15.498;2023-06-14T14:56:58;26.80;80.40
1988;DHT22;12775;46.994;15.498;2023-06-14T14:59:24;26.90;82.20
1988;DHT22;12775;46.994;15.498;2023-06-14T15:01:52;26.50;74.40
1988;DHT22;12775;46.994;15.498;2023-06-14T15:04:18;26.50;74.50
1988;DHT22;12775;46.994;15.498;2023-06-14T15:06:46;25.90;75.80
1988;DHT22;12775;46.994;15.498;2023-06-14T15:09:12;25.80;75.70
1988;DHT22;12775;46.994;15.498;2023-06-14T15:11:39;25.60;75.30
1988;DHT22;12775;46.994;15.498;2023-06-14T15:14:05;25.60;76.90
1988;DHT22;12775;46.994;15.498;2023-06-14T15:16:32;25.40;76.50
1988;DHT22;12775;46.994;15.498;2023-06-14T15:18:58;25.30;78.70
1988;DHT22;12775;46.994;15.498;2023-06-14T15:21:25;25.30;77.50
1988;DHT22;12775;46.994;15.498;2023-06-14T15:23:52;24.90;76.50
1988;DHT22;12775;46.994;15.498;2023-06-14T15:26:19;24.90;76.60
1988;DHT22;12775;46.994;15.498;2023-06-14T15:28:46;24.80;76.70
1988;DHT22;12775;46.994;15.498;2023-06-14T15:31:12;24.60;76.90
1988;DHT22;12775;46.994;15.498;2023-06-14T15:33:40;24.40;78.50
1988;DHT22;12775;46.994;15.498;2023-06-14T15:36:06;24.40;78.50
1988;DHT22;12775;46.994;15.498;2023-06-14T15:38:34;24.50;80.20
1988;DHT22;12775;46.994;15.498;2023-06-14T15:41:00;24.40;80.10
1988;DHT22;12775;46.994;15.498;2023-06-14T15:43:29;24.60;80.30
1988;DHT22;12775;46.994;15.498;2023-06-14T15:46:02;24.60;80.30
1988;DHT22;12775;46.994;15.498;2023-06-14T15:48:29;24.40;76.60
1988;DHT22;12775;46.994;15.498;2023-06-14T15:50:58;24.40;76.60
1988;DHT22;12775;46.994;15.498;2023-06-14T15:53:27;24.50;82.40
1988;DHT22;12775;46.994;15.498;2023-06-14T15:55:54;24.50;82.40
1988;DHT22;12775;46.994;15.498;2023-06-14T15:58:24;24.80;79.50
1988;DHT22;12775;46.994;15.498;2023-06-14T16:00:58;24.90;79.70
1988;DHT22;12775;46.994;15.498;2023-06-14T16:03:28;25.10;79.80
1988;DHT22;12775;46.994;15.498;2023-06-14T16:05:57;24.90;78.60
1988;DHT22;12775;46.994;15.498;2023-06-14T16:08:26;24.90;78.70
1988;DHT22;12775;46.994;15.498;2023-06-14T16:10:54;25.10;79.20
1988;DHT22;12775;46.994;15.498;2023-06-14T16:13:23;25.10;79.50
1988;DHT22;12775;46.994;15.498;2023-06-14T16:15:50;25.00;79.40
1988;DHT22;12775;46.994;15.498;2023-06-14T16:18:18;25.00;77.80
1988;DHT22;12775;46.994;15.498;2023-06-14T16:20:45;25.10;77.80
1988;DHT22;12775;46.994;15.498;2023-06-14T16:23:13;25.00;77.70
1988;DHT22;12775;46.994;15.498;2023-06-14T16:25:52;25.10;77.20
1988;DHT22;12775;46.994;15.498;2023-06-14T16:28:22;25.10;77.20
1988;DHT22;12775;46.994;15.498;2023-06-14T16:30:53;25.10;78.20
1988;DHT22;12775;46.994;15.498;2023-06-14T16:33:22;24.90;77.50
1988;DHT22;12775;46.994;15.498;2023-06-14T16:35:51;24.90;78.80
1988;DHT22;12775;46.994;15.498;2023-06-14T16:38:19;24.90;78.20
1988;DHT22;12775;46.994;15.498;2023-06-14T16:40:52;24.80;77.00
1988;DHT22;12775;46.994;15.498;2023-06-14T16:43:22;24.80;77.00
1988;DHT22;12775;46.994;15.498;2023-06-14T16:45:54;24.70;78.10
1988;DHT22;12775;46.994;15.498;2023-06-14T16:48:23;24.70;78.00
1988;DHT22;12775;46.994;15.498;2023-06-14T16:50:55;24.70;83.70
1988;DHT22;12775;46.994;15.498;2023-06-14T16:53:24;24.60;83.60
1988;DHT22;12775;46.994;15.498;2023-06-14T16:55:56;24.80;85.60
1988;DHT22;12775;46.994;15.498;2023-06-14T16:58:29;24.80;82.10
1988;DHT22;12775;46.994;15.498;2023-06-14T17:00:56;24.80;82.10
1988;DHT22;12775;46.994;15.498;2023-06-14T17:03:22;24.80;78.90
1988;DHT22;12775;46.994;15.498;2023-06-14T17:05:54;24.70;78.60
1988;DHT22;12775;46.994;15.498;2023-06-14T17:08:24;24.50;77.30
1988;DHT22;12775;46.994;15.498;2023-06-14T17:10:53;24.50;77.30
1988;DHT22;12775;46.994;15.498;2023-06-14T17:13:21;24.50;80.00
1988;DHT22;12775;46.994;15.498;2023-06-14T17:15:48;24.50;78.30
1988;DHT22;12775;46.994;15.498;2023-06-14T17:18:16;24.50;78.30
1988;DHT22;12775;46.994;15.498;2023-06-14T17:20:42;24.50;77.40
1988;DHT22;12775;46.994;15.498;2023-06-14T17:23:11;24.50;79.00
1988;DHT22;12775;46.994;15.498;2023-06-14T17:25:40;24.50;78.00
1988;DHT22;12775;46.994;15.498;2023-06-14T17:28:08;24.40;77.30
1988;DHT22;12775;46.994;15.498;2023-06-14T17:30:35;24.40;77.30
1988;DHT22;12775;46.994;15.498;2023-06-14T17:33:07;24.40;78.00
1988;DHT22;12775;46.994;15.498;2023-06-14T17:35:35;24.40;78.00
1988;DHT22;12775;46.994;15.498;2023-06-14T17:38:02;24.40;78.10
1988;DHT22;12775;46.994;15.498;2023-06-14T17:40:29;24.30;78.50
1988;DHT22;12775;46.994;15.498;2023-06-14T17:42:55;24.30;78.90
1988;DHT22;12775;46.994;15.498;2023-06-14T17:45:22;24.30;84.50
1988;DHT22;12775;46.994;15.498;2023-06-14T17:47:50;24.30;84.30
1988;DHT22;12775;46.994;15.498;2023-06-14T17:50:16;24.30;84.40
1988;DHT22;12775;46.994;15.498;2023-06-14T17:52:44;24.30;86.10
1988;DHT22;12775;46.994;15.498;2023-06-14T17:55:10;24.30;86.10
1988;DHT22;12775;46.994;15.498;2023-06-14T17:57:37;24.20;83.20
1988;DHT22;12775;46.994;15.498;2023-06-14T18:00:04;24.20;84.40
1988;DHT22;12775;46.994;15.498;2023-06-14T18:02:31;24.10;86.20
1988;DHT22;12775;46.994;15.498;2023-06-14T18:05:00;24.10;86.60
1988;DHT22;12775;46.994;15.498;2023-06-14T18:07:26;24.10;86.70
1988;DHT22;12775;46.994;15.498;2023-06-14T18:09:53;24.10;86.90
1988;DHT22;12775;46.994;15.498;2023-06-14T18:12:20;24.00;86.50
1988;DHT22;12775;46.994;15.498;2023-06-14T18:14:47;23.90;86.40
1988;DHT22;12775;46.994;15.498;2023-06-14T18:17:14;23.90;86.50